Furth, Germany

11:12 PM CEST on June 30, 2015 (GMT +0200)
Fuerth Eigenes Heim | | Change Station
CLOSE
Current Station
Personal Weather Station
Location: Fürth, BAYERN
Elevation: 1013 ft
Nearby Weather Stations

Elev 1013 ft 49.49 °N, 10.98 °E | Updated 10 minutes ago

Clear
Clear
71.2 °F
Feels Like 77 °F
N
0.0
Wind Variable Wind from SSE
Gusts 0.0 mph

Today
High -- | Low -- °F
--% Chance of Precip.
Yesterday
High -- | Low -- °F
Precip. -- in
5:12 AM 9:26 PM
Waxing Gibbous, 98% visible
Pressure 30.17 in
Visibility 6.2 miles
Clouds Clear
Heat Index 77 °F
Dew Point 53 °F
Humidity 52%
Rainfall 0.00 in
Snow Depth Not available.
UV 0.0 out of 12
Pollen Not available.
Air Quality Not available.
Flu Activity Not available.
METAR ETEB 302058Z AUTO 05004KT 9999 CLR 22/09 A3017 RMK AO2 SLPNO T02230094 52009 $

More Conditions Fewer Conditions

Pressure 30.17 in
Visibility 6.2 miles
Clouds Clear
Heat Index 77 °F
Dew Point 53 °F
Humidity 52%
Rainfall 0.00 in
Snow Depth Not available.
UV 0.0 out of 12
Pollen Not available.
Air Quality Not available.
Flu Activity Not available.
METAR ETEB 302058Z AUTO 05004KT 9999 CLR 22/09 A3017 RMK AO2 SLPNO T02230094 52009 $

More Conditions Fewer Conditions

10-Day Weather Forecast

×

Almanac

Astronomy

Jun. 30, 2015 Rise Set
Actual Time
Civil Twilight
Nautical Twilight
Astronomical Twilight
Moon
Length of Visible Light
Length of Day
Tomorrow will be .
, % of the Moon is Illuminated

Today's Extremes

Country Highs Country Lows

Community

WunderPhotos

Upload Photos

1,834,077 photos uploaded!

WunderBlogs® & News

Nearby

Air Quality

  Air Quality AQ Index Pollutant
Not available.

Snow Depth

Station Depth Elevation

Earthquake Activity

City Distance Mag. Time & Date
Minimum magnitude displayed is 2.5.

Coastal Water Temperatures

Place Temperature

Stations

Nearby Weather Stations

Station Location Temp. Windchill Dew Point Humidity Wind Precip. Elev Updated Type